createdAt,value
2023-01-20T00:01:48.337Z,19.20
2023-01-20T00:04:21.175Z,19.30
2023-01-20T00:06:50.591Z,19.20
2023-01-20T00:09:20.043Z,19.20
2023-01-20T00:11:49.274Z,19.20
2023-01-20T00:14:18.629Z,19.20
2023-01-20T00:16:48.017Z,19.20
2023-01-20T00:19:18.732Z,19.10
2023-01-20T00:21:47.919Z,19.10
2023-01-20T00:24:17.209Z,19.10
2023-01-20T00:26:46.528Z,19.10
2023-01-20T00:29:15.683Z,19.10
2023-01-20T00:31:45.033Z,19.10
2023-01-20T00:34:14.277Z,19.10
2023-01-20T00:36:45.009Z,19.10
2023-01-20T00:39:14.171Z,19.00
2023-01-20T00:41:43.449Z,19.00
2023-01-20T00:44:12.709Z,19.00
2023-01-20T00:46:42.050Z,19.00
2023-01-20T00:49:11.850Z,19.00
2023-01-20T00:51:41.029Z,19.00
2023-01-20T00:54:11.698Z,19.00
2023-01-20T00:56:40.914Z,18.90
2023-01-20T00:59:10.946Z,18.90
2023-01-20T01:01:40.311Z,18.90
2023-01-20T01:04:09.806Z,18.90
2023-01-20T01:06:39.678Z,18.90
2023-01-20T01:09:10.442Z,18.80
2023-01-20T01:11:39.712Z,18.80
2023-01-20T01:14:08.960Z,18.80
2023-01-20T01:16:38.277Z,18.80
2023-01-20T01:19:07.525Z,18.80
2023-01-20T01:21:37.148Z,18.80
2023-01-20T01:24:06.683Z,18.80
2023-01-20T01:26:37.373Z,18.70
2023-01-20T01:29:06.805Z,18.70
2023-01-20T01:31:36.028Z,18.70
2023-01-20T01:34:05.269Z,18.70
2023-01-20T01:36:34.490Z,18.70
2023-01-20T01:39:03.660Z,18.70
2023-01-20T01:41:33.243Z,18.70
2023-01-20T01:44:07.893Z,18.60
2023-01-20T01:46:37.721Z,18.60
2023-01-20T01:49:11.701Z,18.60
2023-01-20T01:51:45.957Z,18.60
2023-01-20T01:54:18.449Z,18.60
2023-01-20T01:56:49.870Z,18.50
2023-01-20T01:59:21.674Z,18.50
2023-01-20T02:01:52.978Z,18.50
2023-01-20T02:04:24.196Z,18.50
2023-01-20T02:06:57.781Z,18.50
2023-01-20T02:09:28.071Z,18.50
2023-01-20T02:12:02.000Z,18.50
2023-01-20T02:14:36.197Z,18.50
2023-01-20T02:17:13.053Z,18.50
2023-01-20T02:20:07.587Z,18.50
2023-01-20T02:22:45.634Z,18.50
2023-01-20T02:25:48.211Z,18.50
2023-01-20T02:28:48.766Z,18.50
2023-01-20T02:32:10.401Z,18.40
2023-01-20T02:34:47.369Z,18.40
2023-01-20T02:37:19.765Z,18.40
2023-01-20T02:39:57.484Z,18.40
2023-01-20T02:42:32.718Z,18.40
2023-01-20T02:45:06.994Z,18.40
2023-01-20T02:47:43.452Z,18.40
2023-01-20T02:50:29.055Z,18.40
2023-01-20T02:53:00.990Z,18.30
2023-01-20T02:55:35.385Z,18.30
2023-01-20T02:58:08.378Z,18.30
2023-01-20T03:00:41.383Z,18.30
2023-01-20T03:03:14.321Z,18.30
2023-01-20T03:05:50.820Z,18.30
2023-01-20T03:08:21.804Z,18.30
2023-01-20T03:10:53.949Z,18.30
2023-01-20T03:13:29.255Z,18.20
2023-01-20T03:16:01.612Z,18.20
2023-01-20T03:18:32.675Z,18.20
2023-01-20T03:21:05.469Z,18.20
2023-01-20T03:23:37.771Z,18.20
2023-01-20T03:26:10.810Z,18.20
2023-01-20T03:28:40.080Z,18.20
2023-01-20T03:31:15.779Z,18.20
2023-01-20T03:33:46.247Z,18.20
2023-01-20T03:36:18.178Z,18.20
2023-01-20T03:38:47.978Z,18.20
2023-01-20T03:41:27.435Z,18.10
2023-01-20T03:44:03.528Z,18.10
2023-01-20T03:46:38.031Z,18.10
2023-01-20T03:49:16.062Z,18.10
2023-01-20T03:51:56.320Z,18.10
2023-01-20T03:54:30.929Z,18.10
2023-01-20T03:57:05.665Z,18.10
2023-01-20T03:59:37.219Z,18.10
2023-01-20T04:02:08.822Z,18.00
2023-01-20T04:04:41.454Z,18.00
2023-01-20T04:07:15.287Z,18.00
2023-01-20T04:09:49.065Z,18.00
2023-01-20T04:12:18.433Z,18.00
2023-01-20T04:14:47.692Z,18.00
2023-01-20T04:17:17.143Z,18.00
2023-01-20T04:19:46.305Z,18.00
2023-01-20T04:22:22.018Z,18.00
2023-01-20T04:24:56.438Z,18.00
2023-01-20T04:27:25.706Z,17.90
2023-01-20T04:29:54.905Z,17.90
2023-01-20T04:32:24.142Z,17.90
2023-01-20T04:34:53.688Z,17.90
2023-01-20T04:37:26.312Z,17.90
2023-01-20T04:39:55.638Z,17.90
2023-01-20T04:42:24.898Z,17.90
2023-01-20T04:44:54.084Z,17.90
2023-01-20T04:47:23.294Z,17.90
2023-01-20T04:49:52.409Z,17.90
2023-01-20T04:52:21.704Z,17.80
2023-01-20T04:54:52.448Z,17.80
2023-01-20T04:57:21.658Z,17.80
2023-01-20T04:59:51.269Z,17.80
2023-01-20T05:02:20.597Z,17.80
2023-01-20T05:04:49.911Z,17.80
2023-01-20T05:07:19.147Z,17.80
2023-01-20T05:09:48.361Z,17.80
2023-01-20T05:12:19.008Z,17.80
2023-01-20T05:14:48.239Z,17.80
2023-01-20T05:17:17.453Z,17.70
2023-01-20T05:19:46.740Z,17.80
2023-01-20T05:22:15.985Z,17.80
2023-01-20T05:24:45.355Z,17.80
2023-01-20T05:27:14.614Z,17.80
2023-01-20T05:29:45.223Z,17.80
2023-01-20T05:32:14.441Z,17.80
2023-01-20T05:34:43.862Z,17.70
2023-01-20T05:37:13.188Z,17.70
2023-01-20T05:39:42.476Z,17.70
2023-01-20T05:42:11.693Z,17.70
2023-01-20T05:44:41.081Z,17.70
2023-01-20T05:47:12.045Z,17.70
2023-01-20T05:49:42.613Z,17.70
2023-01-20T05:52:11.843Z,17.80
2023-01-20T05:54:41.191Z,17.80
2023-01-20T05:57:10.460Z,17.70
2023-01-20T05:59:39.748Z,17.70
2023-01-20T06:02:11.507Z,17.70
2023-01-20T06:04:40.963Z,17.70
2023-01-20T06:07:10.662Z,17.70
2023-01-20T06:09:39.923Z,17.70
2023-01-20T06:12:09.768Z,17.70
2023-01-20T06:14:39.241Z,17.70
2023-01-20T06:17:09.086Z,17.80
2023-01-20T06:19:40.012Z,17.80
2023-01-20T06:22:09.895Z,17.90
2023-01-20T06:24:39.354Z,17.90
2023-01-20T06:27:08.688Z,18.00
2023-01-20T06:29:37.981Z,18.00
2023-01-20T06:32:07.654Z,18.00
2023-01-20T06:34:38.445Z,17.90
2023-01-20T06:37:07.728Z,17.90
2023-01-20T06:39:37.850Z,18.00
2023-01-20T06:42:07.751Z,18.00
2023-01-20T06:44:36.950Z,18.00
2023-01-20T06:47:06.217Z,18.10
2023-01-20T06:49:35.885Z,18.10
2023-01-20T06:52:07.006Z,18.10
2023-01-20T06:54:36.405Z,18.20
2023-01-20T06:57:05.695Z,18.20
2023-01-20T06:59:34.888Z,18.20
2023-01-20T07:02:04.137Z,18.30
2023-01-20T07:04:33.707Z,18.30
2023-01-20T07:07:03.044Z,18.40
2023-01-20T07:09:33.736Z,18.40
2023-01-20T07:12:02.987Z,18.40
2023-01-20T07:14:32.415Z,18.40
2023-01-20T07:17:01.815Z,18.40
2023-01-20T07:19:30.976Z,18.50
2023-01-20T07:22:00.135Z,18.50
2023-01-20T07:24:29.364Z,18.50
2023-01-20T07:27:00.265Z,18.50
2023-01-20T07:29:29.716Z,18.60
2023-01-20T07:31:58.946Z,18.60
2023-01-20T07:34:28.509Z,18.60
2023-01-20T07:36:57.669Z,18.60
2023-01-20T07:39:26.894Z,18.60
2023-01-20T07:41:56.105Z,18.60
2023-01-20T07:44:26.879Z,18.60
2023-01-20T07:46:56.098Z,18.60
2023-01-20T07:49:25.347Z,18.60
2023-01-20T07:51:54.615Z,18.60
2023-01-20T07:54:24.247Z,18.60
2023-01-20T07:56:53.493Z,18.60
2023-01-20T07:59:22.731Z,18.60
2023-01-20T08:01:53.491Z,18.60
2023-01-20T08:04:23.855Z,18.60
2023-01-20T08:06:53.023Z,18.60
2023-01-20T08:09:22.283Z,18.60
2023-01-20T08:11:51.540Z,18.60
2023-01-20T08:14:20.939Z,18.60
2023-01-20T08:16:50.256Z,18.60
2023-01-20T08:19:20.906Z,18.70
2023-01-20T08:21:50.209Z,18.70
2023-01-20T08:24:19.503Z,18.70
2023-01-20T08:26:48.760Z,18.70
2023-01-20T08:29:17.965Z,18.80
2023-01-20T08:31:47.456Z,18.80
2023-01-20T08:34:18.808Z,18.90
2023-01-20T08:36:50.370Z,18.90
2023-01-20T08:39:19.887Z,18.90
2023-01-20T08:41:50.279Z,18.90
2023-01-20T08:44:20.664Z,18.90
2023-01-20T08:46:52.741Z,19.00
2023-01-20T08:49:23.680Z,19.10
2023-01-20T08:51:55.528Z,19.10
2023-01-20T08:54:25.676Z,19.20
2023-01-20T08:56:55.157Z,19.20
2023-01-20T08:59:24.493Z,19.30
2023-01-20T09:01:53.723Z,19.30
2023-01-20T09:04:23.029Z,19.30
2023-01-20T09:06:54.029Z,19.40
2023-01-20T09:09:25.011Z,19.40
2023-01-20T09:11:54.921Z,19.40
2023-01-20T09:14:26.581Z,19.40
2023-01-20T09:16:55.811Z,19.40
2023-01-20T09:19:25.013Z,19.40
2023-01-20T09:21:56.822Z,19.40
2023-01-20T09:24:26.104Z,19.40
2023-01-20T09:26:56.967Z,19.50
2023-01-20T09:29:26.565Z,19.40
2023-01-20T09:31:58.361Z,19.40
2023-01-20T09:34:29.740Z,19.40
2023-01-20T09:37:22.466Z,19.40
2023-01-20T09:40:08.991Z,19.40
2023-01-20T09:43:10.366Z,19.40
2023-01-20T09:45:42.162Z,19.40
2023-01-20T09:48:28.565Z,19.40
2023-01-20T09:51:22.423Z,19.40
2023-01-20T09:54:01.709Z,19.40
2023-01-20T09:56:32.473Z,19.30
2023-01-20T09:59:09.650Z,19.30
2023-01-20T10:01:44.001Z,19.30
2023-01-20T10:04:18.696Z,19.30
2023-01-20T10:06:51.478Z,19.30
2023-01-20T10:09:32.756Z,19.30
2023-01-20T10:12:08.860Z,19.30
2023-01-20T10:14:43.295Z,19.30
2023-01-20T10:17:17.785Z,19.30
2023-01-20T10:19:53.437Z,19.30
2023-01-20T10:22:32.750Z,19.30
2023-01-20T10:25:08.767Z,19.20
2023-01-20T10:27:42.932Z,19.20
2023-01-20T10:30:16.626Z,19.20
2023-01-20T10:32:54.567Z,19.20
2023-01-20T10:35:27.620Z,19.20
2023-01-20T10:37:58.709Z,19.20
2023-01-20T10:40:37.775Z,19.20
2023-01-20T10:43:13.453Z,19.20
2023-01-20T10:45:58.606Z,19.20
2023-01-20T10:48:46.421Z,19.10
2023-01-20T10:51:23.105Z,19.10
2023-01-20T10:54:02.650Z,19.10
2023-01-20T10:56:45.321Z,19.20
2023-01-20T10:59:17.925Z,19.20
2023-01-20T11:01:59.230Z,19.20
2023-01-20T11:04:34.294Z,19.20
2023-01-20T11:07:08.554Z,19.20
2023-01-20T11:09:39.015Z,19.30
2023-01-20T11:12:15.669Z,19.30
2023-01-20T11:14:45.184Z,19.40
2023-01-20T11:17:17.454Z,19.40
2023-01-20T11:19:52.474Z,19.40
2023-01-20T11:22:29.051Z,19.40
2023-01-20T11:25:00.206Z,19.40
2023-01-20T11:27:36.105Z,19.50
2023-01-20T11:30:07.917Z,19.50
2023-01-20T11:32:40.192Z,19.50
2023-01-20T11:35:22.764Z,19.50
2023-01-20T11:37:52.576Z,19.50
2023-01-20T11:40:24.375Z,19.50
2023-01-20T11:42:55.720Z,19.50
2023-01-20T11:45:32.720Z,19.60
2023-01-20T11:48:17.831Z,19.60
2023-01-20T11:50:51.045Z,19.60
2023-01-20T11:53:23.580Z,19.60
2023-01-20T11:55:55.374Z,19.60
2023-01-20T11:58:28.751Z,19.60
2023-01-20T12:01:03.646Z,19.50
2023-01-20T12:04:20.880Z,19.50
2023-01-20T12:06:57.136Z,19.60
2023-01-20T12:09:31.586Z,19.50
2023-01-20T12:12:04.458Z,19.60
2023-01-20T12:14:41.849Z,19.60
2023-01-20T12:17:40.133Z,19.60
2023-01-20T12:20:25.688Z,19.70
2023-01-20T12:23:15.214Z,19.70
2023-01-20T12:25:51.221Z,19.70
2023-01-20T12:28:24.567Z,19.80
2023-01-20T12:31:00.463Z,19.80
2023-01-20T12:33:32.889Z,19.80
2023-01-20T12:36:46.554Z,19.90
2023-01-20T12:39:29.989Z,20.00
2023-01-20T12:42:29.915Z,19.90
2023-01-20T12:45:01.169Z,19.90
2023-01-20T12:47:45.617Z,19.90
2023-01-20T12:50:33.611Z,19.90
2023-01-20T12:53:27.390Z,20.00
2023-01-20T12:56:09.901Z,20.00
2023-01-20T12:58:49.569Z,19.90
2023-01-20T13:01:41.254Z,19.90
2023-01-20T13:04:38.363Z,19.90
2023-01-20T13:07:21.468Z,20.00
2023-01-20T13:10:12.742Z,19.90
2023-01-20T13:12:50.101Z,19.90
2023-01-20T13:15:23.470Z,19.90
2023-01-20T13:18:19.463Z,20.00
2023-01-20T13:20:50.958Z,19.90
2023-01-20T13:23:24.443Z,19.90
2023-01-20T13:25:54.925Z,19.80
2023-01-20T13:28:26.160Z,19.80
2023-01-20T13:30:57.650Z,19.80
2023-01-20T13:33:35.812Z,19.80
2023-01-20T13:36:18.909Z,19.80
2023-01-20T13:38:49.119Z,19.80
2023-01-20T13:41:56.929Z,19.70
2023-01-20T13:44:36.271Z,19.80
2023-01-20T13:47:08.996Z,19.70
2023-01-20T13:49:51.028Z,19.70
2023-01-20T13:52:53.638Z,19.70
2023-01-20T13:55:31.705Z,19.70
2023-01-20T13:58:01.209Z,19.70
2023-01-20T14:00:30.397Z,19.70
2023-01-20T14:02:59.577Z,19.70
2023-01-20T14:05:32.305Z,19.80
2023-01-20T14:08:01.932Z,19.80
2023-01-20T14:10:32.687Z,19.80
2023-01-20T14:13:01.912Z,19.80
2023-01-20T14:15:38.129Z,19.80
2023-01-20T14:18:15.521Z,19.80
2023-01-20T14:20:57.370Z,19.90
2023-01-20T14:23:46.254Z,19.90
2023-01-20T14:26:23.564Z,19.80
2023-01-20T14:28:54.079Z,19.90
2023-01-20T14:31:33.987Z,19.80
2023-01-20T14:34:19.968Z,19.80
2023-01-20T14:36:49.332Z,19.80
2023-01-20T14:39:21.969Z,19.80
2023-01-20T14:41:54.011Z,19.80
2023-01-20T14:44:25.254Z,19.80
2023-01-20T14:46:57.791Z,19.90
2023-01-20T14:49:33.972Z,19.90
2023-01-20T14:52:03.842Z,19.90
2023-01-20T14:54:38.899Z,19.90
2023-01-20T14:57:43.772Z,19.90
2023-01-20T15:00:17.833Z,20.00
2023-01-20T15:03:01.365Z,20.00
2023-01-20T15:05:40.447Z,20.00
2023-01-20T15:08:26.395Z,20.00
2023-01-20T15:11:23.949Z,20.00
2023-01-20T15:14:14.143Z,20.00
2023-01-20T15:16:49.630Z,20.10
2023-01-20T15:19:30.189Z,20.10
2023-01-20T15:22:19.451Z,20.10
2023-01-20T15:24:49.749Z,20.10
2023-01-20T15:27:31.552Z,20.10
2023-01-20T15:30:16.408Z,20.10
2023-01-20T15:32:46.050Z,20.20
2023-01-20T15:35:16.061Z,20.20
2023-01-20T15:37:46.052Z,20.20
2023-01-20T15:40:17.370Z,20.10
2023-01-20T15:42:47.207Z,20.20
2023-01-20T15:45:19.063Z,20.20
2023-01-20T15:47:49.367Z,20.10
2023-01-20T15:50:20.901Z,20.10
2023-01-20T15:52:50.971Z,20.10
2023-01-20T15:55:21.077Z,20.20
2023-01-20T15:57:53.246Z,20.10
2023-01-20T16:00:25.182Z,20.20
2023-01-20T16:02:54.617Z,20.20
2023-01-20T16:05:25.522Z,20.20
2023-01-20T16:07:54.746Z,20.20
2023-01-20T16:10:24.019Z,20.20
2023-01-20T16:12:53.183Z,20.20
2023-01-20T16:15:23.912Z,20.20
2023-01-20T16:17:54.244Z,20.20
2023-01-20T16:20:25.745Z,20.20
2023-01-20T16:22:56.857Z,20.30
2023-01-20T16:25:26.301Z,20.30
2023-01-20T16:27:55.944Z,20.30
2023-01-20T16:30:26.989Z,20.30
2023-01-20T16:32:56.272Z,20.30
2023-01-20T16:35:25.712Z,20.30
2023-01-20T16:37:55.058Z,20.30
2023-01-20T16:40:24.775Z,20.30
2023-01-20T16:42:57.551Z,20.30
2023-01-20T16:45:30.415Z,20.40
2023-01-20T16:48:00.429Z,20.30
2023-01-20T16:50:30.293Z,20.40
2023-01-20T16:52:59.607Z,20.40
2023-01-20T16:55:29.042Z,20.40
2023-01-20T16:57:58.292Z,20.40
2023-01-20T17:00:29.015Z,20.40
2023-01-20T17:02:58.233Z,20.30
2023-01-20T17:05:29.474Z,20.40
2023-01-20T17:07:59.522Z,20.40
2023-01-20T17:10:32.388Z,20.40
2023-01-20T17:13:01.773Z,20.50
2023-01-20T17:15:32.443Z,20.50
2023-01-20T17:18:01.786Z,20.60
2023-01-20T17:20:32.461Z,20.70
2023-01-20T17:23:01.791Z,20.70
2023-01-20T17:25:31.179Z,20.70
2023-01-20T17:28:00.356Z,20.80
2023-01-20T17:30:29.746Z,20.80
2023-01-20T17:33:00.356Z,20.80
2023-01-20T17:35:29.648Z,20.80
2023-01-20T17:37:59.427Z,20.90
2023-01-20T17:40:28.612Z,20.90
2023-01-20T17:42:57.964Z,20.90
2023-01-20T17:45:29.516Z,20.90
2023-01-20T17:48:00.217Z,20.90
2023-01-20T17:50:29.491Z,21.00
2023-01-20T17:52:58.858Z,21.00
2023-01-20T17:55:29.044Z,21.00
2023-01-20T17:57:58.501Z,21.00
2023-01-20T18:00:27.691Z,21.00
2023-01-20T18:02:57.747Z,21.10
2023-01-20T18:05:29.084Z,21.00
2023-01-20T18:07:58.760Z,21.10
2023-01-20T18:10:27.988Z,21.00
2023-01-20T18:12:58.084Z,21.00
2023-01-20T18:15:27.477Z,21.00
2023-01-20T18:17:56.836Z,21.00
2023-01-20T18:20:27.530Z,21.00
2023-01-20T18:22:56.884Z,21.00
2023-01-20T18:25:26.150Z,21.00
2023-01-20T18:27:55.414Z,21.00
2023-01-20T18:30:24.677Z,21.00
2023-01-20T18:32:54.032Z,21.00
2023-01-20T18:35:23.451Z,21.00
2023-01-20T18:37:54.192Z,21.00
2023-01-20T18:40:23.611Z,21.10
2023-01-20T18:42:52.903Z,21.10
2023-01-20T18:45:22.355Z,21.20
2023-01-20T18:47:51.546Z,21.20
2023-01-20T18:50:21.019Z,21.20
2023-01-20T18:52:50.270Z,21.20
2023-01-20T18:55:21.044Z,21.20
2023-01-20T18:57:50.405Z,21.20
2023-01-20T19:00:20.773Z,21.20
2023-01-20T19:02:52.511Z,21.30
2023-01-20T19:05:21.826Z,21.30
2023-01-20T19:07:51.473Z,21.30
2023-01-20T19:10:22.287Z,21.30
2023-01-20T19:12:53.652Z,21.30
2023-01-20T19:15:23.778Z,21.20
2023-01-20T19:17:53.152Z,21.30
2023-01-20T19:20:22.430Z,21.20
2023-01-20T19:22:52.446Z,21.30
2023-01-20T19:25:25.955Z,21.30
2023-01-20T19:27:55.343Z,21.30
2023-01-20T19:30:24.823Z,21.30
2023-01-20T19:32:54.041Z,21.30
2023-01-20T19:35:23.688Z,21.30
2023-01-20T19:37:53.115Z,21.40
2023-01-20T19:40:24.136Z,21.40
2023-01-20T19:42:53.459Z,21.40
2023-01-20T19:45:25.444Z,21.40
2023-01-20T19:47:54.894Z,21.40
2023-01-20T19:50:24.528Z,21.40
2023-01-20T19:52:54.070Z,21.50
2023-01-20T19:55:25.000Z,21.50
2023-01-20T19:57:55.678Z,21.50
2023-01-20T20:00:25.206Z,21.50
2023-01-20T20:02:55.864Z,21.50
2023-01-20T20:05:25.194Z,21.50
2023-01-20T20:07:55.313Z,21.50
2023-01-20T20:10:26.121Z,21.50
2023-01-20T20:12:55.437Z,21.60
2023-01-20T20:15:24.944Z,21.60
2023-01-20T20:17:55.778Z,21.50
2023-01-20T20:20:25.199Z,21.50
2023-01-20T20:22:55.105Z,21.60
2023-01-20T20:25:29.486Z,21.50
2023-01-20T20:27:59.615Z,21.60
2023-01-20T20:30:28.920Z,21.60
2023-01-20T20:32:58.913Z,21.50
2023-01-20T20:35:28.435Z,21.50
2023-01-20T20:37:57.791Z,21.50
2023-01-20T20:40:28.474Z,21.50
2023-01-20T20:42:58.096Z,21.50
2023-01-20T20:45:27.459Z,21.50
2023-01-20T20:47:57.898Z,21.50
2023-01-20T20:50:27.601Z,21.50
2023-01-20T20:52:58.103Z,21.50
2023-01-20T20:55:29.516Z,21.40
2023-01-20T20:57:58.783Z,21.40
2023-01-20T21:00:28.420Z,21.30
2023-01-20T21:02:57.661Z,21.30
2023-01-20T21:05:26.979Z,21.20
2023-01-20T21:07:56.208Z,21.20
2023-01-20T21:10:25.399Z,21.10
2023-01-20T21:12:56.827Z,21.10
2023-01-20T21:15:26.406Z,21.10
2023-01-20T21:17:55.581Z,21.00
2023-01-20T21:20:24.810Z,21.00
2023-01-20T21:22:53.963Z,20.90
2023-01-20T21:25:24.283Z,20.90
2023-01-20T21:27:53.509Z,20.80
2023-01-20T21:30:24.509Z,20.90
2023-01-20T21:32:54.362Z,20.80
2023-01-20T21:35:24.012Z,20.80
2023-01-20T21:37:53.261Z,20.80
2023-01-20T21:40:22.507Z,20.70
2023-01-20T21:43:15.509Z,20.70
2023-01-20T21:45:52.705Z,20.70
2023-01-20T21:48:39.430Z,20.60
2023-01-20T21:51:27.924Z,20.60
2023-01-20T21:53:57.110Z,20.60
2023-01-20T21:56:26.402Z,20.50
2023-01-20T21:58:55.725Z,20.50
2023-01-20T22:01:26.316Z,20.50
2023-01-20T22:03:55.688Z,20.40
2023-01-20T22:06:25.060Z,20.40
2023-01-20T22:08:54.297Z,20.40
2023-01-20T22:11:23.473Z,20.40
2023-01-20T22:13:56.156Z,20.30
2023-01-20T22:16:27.707Z,20.30
2023-01-20T22:18:57.252Z,20.30
2023-01-20T22:21:26.848Z,20.30
2023-01-20T22:23:56.147Z,20.30
2023-01-20T22:26:25.466Z,20.20
2023-01-20T22:28:54.823Z,20.20
2023-01-20T22:31:25.024Z,20.20
2023-01-20T22:33:57.827Z,20.20
2023-01-20T22:36:27.297Z,20.10
2023-01-20T22:38:56.492Z,20.10
2023-01-20T22:41:25.726Z,20.10
2023-01-20T22:43:55.933Z,20.10
2023-01-20T22:46:26.744Z,20.10
2023-01-20T22:48:59.377Z,20.10
2023-01-20T22:51:29.928Z,20.00
2023-01-20T22:54:01.067Z,20.00
2023-01-20T22:56:32.501Z,20.00
2023-01-20T22:59:01.919Z,20.00
2023-01-20T23:01:33.410Z,19.90
2023-01-20T23:04:06.107Z,19.90
2023-01-20T23:06:37.578Z,19.90
2023-01-20T23:09:09.233Z,19.90
2023-01-20T23:11:40.368Z,19.90
2023-01-20T23:14:12.941Z,19.80
2023-01-20T23:16:43.904Z,19.80
2023-01-20T23:19:14.636Z,19.80
2023-01-20T23:21:43.842Z,19.80
2023-01-20T23:24:13.029Z,19.80
2023-01-20T23:26:42.219Z,19.70
2023-01-20T23:29:11.516Z,19.70
2023-01-20T23:31:40.765Z,19.70
2023-01-20T23:34:10.028Z,19.70
2023-01-20T23:36:40.699Z,19.70
2023-01-20T23:39:11.363Z,19.70
2023-01-20T23:41:40.669Z,19.70
2023-01-20T23:44:10.864Z,19.60
2023-01-20T23:46:40.160Z,19.60
2023-01-20T23:49:09.367Z,19.60
2023-01-20T23:51:40.002Z,19.60
2023-01-20T23:54:13.477Z,19.60
2023-01-20T23:56:42.661Z,19.50
2023-01-20T23:59:11.822Z,19.50
